Flugplatz Emden

Für EDWE sind keine METAR/TAF Berichte vorhanden.
Es werden die Flugwettermeldungen vom Flugplatz Wittmundhafen Airport in 34 km Entfernung angezeigt.

Bericht für ETNT

vom 28.01. um 16:20 UTC

Wind 22 kt aus 260°

Sichtweite 10 km oder mehr

schwacher Regenschauer

aufgelockert bewölkt in 1300 ft

aufgebrochene Bewölkung in 2000 ft

Temperatur 4.0°C

Taupunkt 2.0°C

Luftfeuchtigkeit 87%

Luftdruck 989 hPa

ETNT 281620Z 26022KT 9999 -SHRA SCT013 BKN020 04/02 Q0989 WHT FCST CANCEL

Prognose für ETNT

vom 28.01. um 00:00 UTC

Zwischen 00:00 UTC und 00:00 UTC

Wind 15 kt aus 260° in Böen 25 kt

Sichtweite 10 km oder mehr

keine signifikanten Wettererscheinungen

aufgelockert bewölkt in 1000 ft

aufgebrochene Bewölkung in 3000 ft


Zwischen 00:00 UTC und 00:00 UTC zeitweise

Wind 20 kt aus 280° in Böen 35 kt

Sichtweite 2000 m

Code: TSRA

Code: TSGS

aufgebrochene Bewölkung in 300 ft

aufgebrochene Bewölkung in 800 ft


Zwischen 00:00 UTC und 00:00 UTC zeitweise

Wind 20 kt aus 240° in Böen 32 kt

Sichtweite 3000 m

Regenschauer

Code: SHGS

aufgebrochene Bewölkung in 500 ft

aufgebrochene Bewölkung in 1000 ft

TAF AMD ETNT 281616Z 2816/2824 26015G25KT 9999 NSW SCT010 BKN030 TEMPO 2816/2818 28020G35KT 2000 TSRAGS BKN003 BKN008CB TEMPO 2818/2824 24020G32KT 3000 SHRAGS BKN005 BKN010CB BY ETGL
Impressum